createdAt,value
2017-11-06T00:00:17.610Z,6.70
2017-11-06T00:02:45.088Z,6.70
2017-11-06T00:05:12.589Z,6.70
2017-11-06T00:07:40.413Z,6.60
2017-11-06T00:10:08.680Z,6.60
2017-11-06T00:12:36.181Z,6.60
2017-11-06T00:15:03.683Z,6.60
2017-11-06T00:17:31.156Z,6.60
2017-11-06T00:19:58.665Z,6.70
2017-11-06T00:22:27.925Z,6.60
2017-11-06T00:24:55.426Z,6.50
2017-11-06T00:27:22.916Z,6.60
2017-11-06T00:29:50.437Z,6.60
2017-11-06T00:32:17.922Z,6.60
2017-11-06T00:34:45.383Z,6.60
2017-11-06T00:37:12.900Z,6.70
2017-11-06T00:39:41.156Z,6.60
2017-11-06T00:42:08.645Z,6.50
2017-11-06T00:44:36.153Z,6.60
2017-11-06T00:47:03.654Z,6.50
2017-11-06T00:49:33.676Z,6.50
2017-11-06T00:52:01.184Z,6.50
2017-11-06T00:54:28.659Z,6.60
2017-11-06T00:56:56.156Z,6.60
2017-11-06T00:59:23.653Z,6.60
2017-11-06T01:01:51.161Z,6.50
2017-11-06T01:04:19.408Z,6.50
2017-11-06T01:06:46.914Z,6.50
2017-11-06T01:09:14.448Z,6.60
2017-11-06T01:11:42.708Z,6.50
2017-11-06T01:14:10.189Z,6.50
2017-11-06T01:16:38.442Z,6.60
2017-11-06T01:19:05.928Z,6.60
2017-11-06T01:21:33.420Z,6.70
2017-11-06T01:24:00.912Z,6.60
2017-11-06T01:26:29.187Z,6.40
2017-11-06T01:28:56.676Z,6.40
2017-11-06T01:31:24.171Z,6.50
2017-11-06T01:33:51.670Z,6.60
2017-11-06T01:36:19.945Z,6.50
2017-11-06T01:38:47.448Z,6.50
2017-11-06T01:41:14.924Z,6.50
2017-11-06T01:43:42.416Z,6.60
2017-11-06T01:46:09.888Z,6.50
2017-11-06T01:48:38.151Z,6.50
2017-11-06T01:51:05.633Z,6.50
2017-11-06T01:53:33.896Z,6.40
2017-11-06T01:56:08.761Z,6.40
2017-11-06T01:58:36.301Z,6.40
2017-11-06T02:01:03.848Z,6.50
2017-11-06T02:03:32.136Z,6.50
2017-11-06T02:06:00.393Z,6.50
2017-11-06T02:08:28.652Z,6.60
2017-11-06T02:10:56.146Z,6.50
2017-11-06T02:13:24.399Z,6.70
2017-11-06T02:15:51.905Z,6.60
2017-11-06T02:18:19.414Z,6.60
2017-11-06T02:20:46.916Z,6.70
2017-11-06T02:23:14.413Z,6.70
2017-11-06T02:25:41.901Z,6.50
2017-11-06T02:28:10.154Z,6.30
2017-11-06T02:30:37.647Z,6.30
2017-11-06T02:33:05.189Z,6.30
2017-11-06T02:35:33.436Z,6.30
2017-11-06T02:38:00.934Z,6.30
2017-11-06T02:40:29.204Z,6.30
2017-11-06T02:42:57.463Z,6.30
2017-11-06T02:45:24.953Z,6.30
2017-11-06T02:47:52.441Z,6.40
2017-11-06T02:50:19.943Z,6.40
2017-11-06T02:52:47.438Z,6.30
2017-11-06T02:55:14.956Z,6.20
2017-11-06T02:57:43.230Z,6.10
2017-11-06T03:00:10.728Z,6.20
2017-11-06T03:02:38.212Z,6.10
2017-11-06T03:05:05.748Z,6.20
2017-11-06T03:07:33.287Z,6.30
2017-11-06T03:10:01.549Z,6.20
2017-11-06T03:12:29.034Z,6.20
2017-11-06T03:14:56.515Z,6.20
2017-11-06T03:17:24.000Z,6.30
2017-11-06T03:19:51.485Z,6.30
2017-11-06T03:22:19.760Z,6.30
2017-11-06T03:24:47.333Z,6.30
2017-11-06T03:27:14.828Z,6.30
2017-11-06T03:29:42.320Z,6.30
2017-11-06T03:32:09.828Z,6.30
2017-11-06T03:34:37.314Z,6.10
2017-11-06T03:37:08.633Z,6.20
2017-11-06T03:39:36.114Z,6.20
2017-11-06T03:42:03.621Z,6.10
2017-11-06T03:44:31.880Z,6.20
2017-11-06T03:47:00.146Z,6.20
2017-11-06T03:49:27.626Z,6.20
2017-11-06T03:51:55.904Z,6.10
2017-11-06T03:54:24.152Z,6.00
2017-11-06T03:56:51.659Z,6.00
2017-11-06T03:59:19.132Z,6.10
2017-11-06T04:01:46.616Z,6.10
2017-11-06T04:04:14.129Z,6.00
2017-11-06T04:06:41.616Z,5.80
2017-11-06T04:09:09.120Z,5.90
2017-11-06T04:11:36.601Z,5.90
2017-11-06T04:14:04.116Z,6.00
2017-11-06T04:16:31.600Z,5.80
2017-11-06T04:18:59.855Z,5.90
2017-11-06T04:21:28.116Z,5.90
2017-11-06T04:23:55.613Z,5.90
2017-11-06T04:26:23.994Z,6.10
2017-11-06T04:28:52.284Z,5.90
2017-11-06T04:31:20.524Z,5.80
2017-11-06T04:33:48.038Z,5.80
2017-11-06T04:36:22.542Z,5.90
2017-11-06T04:38:50.808Z,6.00
2017-11-06T04:41:19.052Z,5.90
2017-11-06T04:43:46.681Z,5.90
2017-11-06T04:46:14.185Z,5.90
2017-11-06T04:48:41.678Z,6.00
2017-11-06T04:51:09.180Z,6.00
2017-11-06T04:53:36.684Z,6.10
2017-11-06T04:56:04.948Z,6.00
2017-11-06T04:58:33.205Z,6.00
2017-11-06T05:01:00.709Z,6.00
2017-11-06T05:03:28.241Z,5.80
2017-11-06T05:05:56.503Z,5.80
2017-11-06T05:08:25.487Z,5.90
2017-11-06T05:10:52.976Z,5.90
2017-11-06T05:13:21.237Z,5.90
2017-11-06T05:15:48.733Z,5.90
2017-11-06T05:18:16.218Z,5.90
2017-11-06T05:20:43.726Z,5.90
2017-11-06T05:23:11.968Z,5.90
2017-11-06T05:25:39.477Z,5.90
2017-11-06T05:28:06.973Z,5.90
2017-11-06T05:30:34.492Z,5.90
2017-11-06T05:33:01.976Z,5.80
2017-11-06T05:35:29.478Z,5.90
2017-11-06T05:37:56.967Z,5.80
2017-11-06T05:40:24.457Z,5.90
2017-11-06T05:42:51.957Z,5.80
2017-11-06T05:45:19.459Z,5.90
2017-11-06T05:47:46.956Z,5.60
2017-11-06T05:50:14.490Z,5.80
2017-11-06T05:52:41.977Z,5.80
2017-11-06T05:55:09.462Z,5.90
2017-11-06T05:57:36.959Z,6.00
2017-11-06T06:00:04.449Z,5.80
2017-11-06T06:02:31.967Z,5.80
2017-11-06T06:04:59.453Z,5.70
2017-11-06T06:07:26.949Z,5.80
2017-11-06T06:09:55.221Z,5.60
2017-11-06T06:12:23.487Z,5.70
2017-11-06T06:14:50.979Z,5.60
2017-11-06T06:17:18.491Z,5.70
2017-11-06T06:19:45.989Z,5.70
2017-11-06T06:22:13.502Z,5.70
2017-11-06T06:24:41.037Z,5.90
2017-11-06T06:27:08.543Z,5.70
2017-11-06T06:29:36.808Z,5.80
2017-11-06T06:32:04.297Z,5.80
2017-11-06T06:34:31.779Z,5.60
2017-11-06T06:36:59.272Z,5.70
2017-11-06T06:39:26.752Z,5.60
2017-11-06T06:44:48.386Z,5.80
2017-11-06T06:47:15.886Z,5.90
2017-11-06T06:49:43.374Z,5.90
2017-11-06T06:52:10.901Z,5.90
2017-11-06T06:54:38.419Z,5.60
2017-11-06T06:57:05.930Z,5.50
2017-11-06T06:59:33.428Z,5.60
2017-11-06T07:02:02.430Z,5.70
2017-11-06T07:04:29.917Z,5.80
2017-11-06T07:06:57.405Z,5.70
2017-11-06T07:09:24.897Z,5.80
2017-11-06T07:11:53.198Z,5.70
2017-11-06T07:14:21.477Z,5.50
2017-11-06T07:16:49.739Z,5.70
2017-11-06T07:19:18.035Z,5.70
2017-11-06T07:21:46.164Z,5.70
2017-11-06T07:24:13.657Z,5.70
2017-11-06T07:26:41.921Z,5.30
2017-11-06T07:29:10.176Z,5.60
2017-11-06T07:31:37.677Z,5.60
2017-11-06T07:34:05.936Z,5.50
2017-11-06T07:36:34.189Z,5.70
2017-11-06T07:39:01.677Z,5.70
2017-11-06T07:41:29.933Z,5.60
2017-11-06T07:43:58.341Z,5.60
2017-11-06T07:46:25.834Z,5.50
2017-11-06T07:48:53.342Z,5.60
2017-11-06T07:51:22.001Z,5.60
2017-11-06T07:53:51.021Z,5.60
2017-11-06T07:56:19.273Z,5.60
2017-11-06T07:58:47.337Z,5.60
2017-11-06T08:01:14.820Z,5.80
2017-11-06T08:03:43.073Z,5.80
2017-11-06T08:06:10.568Z,5.80
2017-11-06T08:08:38.831Z,5.90
2017-11-06T08:11:07.122Z,5.90
2017-11-06T08:13:35.382Z,5.90
2017-11-06T08:16:02.876Z,5.90
2017-11-06T08:18:30.378Z,5.90
2017-11-06T08:20:57.896Z,6.00
2017-11-06T08:23:25.395Z,6.00
2017-11-06T08:25:52.890Z,6.10
2017-11-06T08:28:28.882Z,6.00
2017-11-06T08:30:57.224Z,6.00
2017-11-06T08:33:25.475Z,6.10
2017-11-06T08:35:53.035Z,6.10
2017-11-06T08:38:20.530Z,6.10
2017-11-06T08:40:54.041Z,6.10
2017-11-06T08:43:21.536Z,6.00
2017-11-06T08:45:49.037Z,6.10
2017-11-06T08:48:17.294Z,6.10
2017-11-06T08:50:44.792Z,6.10
2017-11-06T08:53:13.114Z,6.20
2017-11-06T08:55:40.588Z,6.20
2017-11-06T08:58:08.867Z,6.30
2017-11-06T09:00:37.120Z,6.30
2017-11-06T09:03:04.617Z,6.30
2017-11-06T09:05:33.504Z,6.30
2017-11-06T09:08:02.377Z,6.30
2017-11-06T09:10:30.633Z,6.20
2017-11-06T09:12:58.149Z,6.20
2017-11-06T09:15:25.632Z,6.10
2017-11-06T09:17:53.129Z,6.20
2017-11-06T09:20:21.373Z,6.20
2017-11-06T09:22:48.866Z,6.10
2017-11-06T09:25:17.134Z,6.30
2017-11-06T09:27:44.637Z,6.30
2017-11-06T09:30:13.264Z,6.20
2017-11-06T09:32:40.775Z,6.20
2017-11-06T09:35:08.272Z,6.30
2017-11-06T09:37:35.766Z,6.40
2017-11-06T09:40:04.032Z,6.50
2017-11-06T09:42:31.941Z,6.50
2017-11-06T09:44:59.421Z,6.50
2017-11-06T09:47:26.925Z,6.50
2017-11-06T09:49:55.206Z,6.40
2017-11-06T09:52:23.456Z,6.50
2017-11-06T09:54:50.938Z,6.50
2017-11-06T09:57:20.142Z,6.50
2017-11-06T09:59:47.652Z,6.50
2017-11-06T10:02:15.151Z,6.50
2017-11-06T10:04:43.400Z,6.60
2017-11-06T10:07:10.891Z,6.60
2017-11-06T10:09:39.144Z,6.50
2017-11-06T10:12:06.650Z,6.60
2017-11-06T10:14:34.157Z,6.50
2017-11-06T10:17:01.667Z,6.50
2017-11-06T10:19:29.168Z,6.50
2017-11-06T10:21:56.664Z,6.50
2017-11-06T10:24:24.925Z,6.50
2017-11-06T10:26:53.182Z,6.50
2017-11-06T10:29:20.860Z,6.50
2017-11-06T10:31:49.129Z,6.40
2017-11-06T10:34:16.620Z,6.40
2017-11-06T10:36:44.109Z,6.40
2017-11-06T10:39:11.677Z,6.50
2017-11-06T10:41:39.189Z,6.50
2017-11-06T10:44:06.675Z,6.50
2017-11-06T10:46:34.190Z,6.50
2017-11-06T10:49:02.437Z,6.40
2017-11-06T10:51:29.947Z,6.40
2017-11-06T10:53:57.432Z,6.40
2017-11-06T10:56:24.926Z,6.50
2017-11-06T10:58:52.420Z,6.50
2017-11-06T11:01:19.931Z,6.50
2017-11-06T11:03:47.413Z,6.50
2017-11-06T11:06:15.668Z,6.40
2017-11-06T11:08:43.152Z,6.40
2017-11-06T11:11:11.416Z,6.40
2017-11-06T11:13:38.909Z,6.40
2017-11-06T11:16:06.423Z,6.60
2017-11-06T11:18:33.931Z,6.50
2017-11-06T11:21:01.448Z,6.60
2017-11-06T11:23:29.743Z,6.60
2017-11-06T11:25:58.008Z,6.60
2017-11-06T11:28:26.295Z,6.60
2017-11-06T11:30:54.546Z,6.70
2017-11-06T11:33:22.040Z,6.70
2017-11-06T11:35:49.521Z,6.70
2017-11-06T11:38:17.027Z,6.60
2017-11-06T11:40:44.523Z,6.50
2017-11-06T11:43:12.036Z,6.60
2017-11-06T11:45:39.534Z,6.50
2017-11-06T11:48:07.025Z,6.50
2017-11-06T11:50:34.506Z,6.50
2017-11-06T11:53:02.019Z,6.50
2017-11-06T11:55:29.508Z,6.50
2017-11-06T11:57:57.003Z,6.60
2017-11-06T12:00:25.240Z,6.50
2017-11-06T12:02:52.756Z,6.50
2017-11-06T12:05:20.271Z,6.60
2017-11-06T12:07:47.755Z,6.60
2017-11-06T12:10:16.032Z,6.60
2017-11-06T12:12:44.278Z,6.70
2017-11-06T12:15:11.789Z,6.70
2017-11-06T12:17:39.295Z,6.70
2017-11-06T12:20:06.794Z,6.70
2017-11-06T12:22:35.042Z,6.60
2017-11-06T12:25:04.070Z,6.60
2017-11-06T12:27:31.604Z,6.60
2017-11-06T12:29:59.111Z,6.70
2017-11-06T12:32:26.605Z,6.70
2017-11-06T12:34:54.856Z,6.70
2017-11-06T12:37:22.353Z,6.70
2017-11-06T12:39:50.635Z,6.70
2017-11-06T12:42:18.895Z,6.80
2017-11-06T12:44:46.411Z,6.80
2017-11-06T12:47:13.894Z,6.80
2017-11-06T12:49:41.401Z,6.90
2017-11-06T12:52:08.877Z,6.80
2017-11-06T12:54:36.385Z,6.90
2017-11-06T12:57:05.404Z,7.10
2017-11-06T12:59:33.685Z,7.10
2017-11-06T13:02:01.940Z,7.10
2017-11-06T13:04:29.455Z,7.10
2017-11-06T13:06:56.992Z,7.10
2017-11-06T13:09:24.493Z,7.10
2017-11-06T13:11:51.982Z,7.10
2017-11-06T13:14:20.261Z,7.20
2017-11-06T13:16:48.529Z,7.30
2017-11-06T13:19:16.789Z,7.30
2017-11-06T13:21:44.289Z,7.30
2017-11-06T13:24:11.768Z,7.40
2017-11-06T13:26:39.253Z,7.40
2017-11-06T13:29:06.743Z,7.30
2017-11-06T13:31:35.011Z,7.30
2017-11-06T13:34:02.490Z,7.30
2017-11-06T13:36:30.753Z,7.40
2017-11-06T13:38:59.018Z,7.30
2017-11-06T13:41:26.505Z,7.30
2017-11-06T13:43:53.989Z,7.30
2017-11-06T13:46:21.476Z,7.30
2017-11-06T13:48:48.960Z,7.30
2017-11-06T13:51:17.235Z,7.20
2017-11-06T13:53:45.486Z,7.20
2017-11-06T13:56:12.994Z,7.20
2017-11-06T13:58:40.507Z,7.10
2017-11-06T14:01:07.993Z,7.10
2017-11-06T14:03:36.271Z,7.00
2017-11-06T14:06:06.281Z,7.00
2017-11-06T14:08:34.546Z,7.00
2017-11-06T14:11:02.021Z,7.00
2017-11-06T14:13:30.284Z,7.10
2017-11-06T14:15:57.765Z,7.00
2017-11-06T14:18:25.280Z,7.10
2017-11-06T14:20:52.766Z,7.10
2017-11-06T14:23:21.028Z,7.00
2017-11-06T14:25:49.288Z,7.10
2017-11-06T14:28:16.791Z,7.10
2017-11-06T14:30:44.267Z,7.10
2017-11-06T14:33:11.774Z,7.00
2017-11-06T14:35:39.269Z,6.90
2017-11-06T14:38:06.819Z,7.00
2017-11-06T14:40:35.067Z,7.00
2017-11-06T14:43:03.320Z,7.00
2017-11-06T14:45:30.805Z,6.90
2017-11-06T14:47:58.341Z,7.00
2017-11-06T14:50:25.937Z,6.90
2017-11-06T14:52:54.185Z,6.80
2017-11-06T14:55:21.684Z,6.80
2017-11-06T14:57:49.942Z,6.90
2017-11-06T15:00:18.626Z,6.80
2017-11-06T15:02:52.249Z,6.90
2017-11-06T15:05:19.761Z,6.90
2017-11-06T15:07:47.236Z,6.80
2017-11-06T15:10:14.732Z,6.80
2017-11-06T15:12:42.224Z,6.70
2017-11-06T15:15:09.733Z,6.70
2017-11-06T15:17:38.703Z,6.70
2017-11-06T15:20:06.525Z,6.70
2017-11-06T15:22:34.013Z,6.70
2017-11-06T15:25:01.504Z,6.60
2017-11-06T15:27:29.764Z,6.70
2017-11-06T15:29:57.256Z,6.70
2017-11-06T15:32:24.737Z,6.60
2017-11-06T15:34:52.233Z,6.60
2017-11-06T15:37:19.730Z,6.60
2017-11-06T15:39:47.270Z,6.60
2017-11-06T15:42:15.524Z,6.60
2017-11-06T15:44:43.025Z,6.60
2017-11-06T15:47:10.503Z,6.60
2017-11-06T15:49:38.792Z,6.40
2017-11-06T15:52:06.290Z,6.40
2017-11-06T15:54:33.790Z,6.40
2017-11-06T15:57:01.292Z,6.40
2017-11-06T15:59:28.806Z,6.40
2017-11-06T16:01:56.294Z,6.40
2017-11-06T16:04:23.790Z,6.40
2017-11-06T16:06:52.955Z,6.40
2017-11-06T16:09:20.458Z,6.40
2017-11-06T16:11:47.940Z,6.40
2017-11-06T16:14:15.471Z,6.40
2017-11-06T16:16:43.723Z,6.30
2017-11-06T16:19:11.233Z,6.30
2017-11-06T16:21:38.731Z,6.40
2017-11-06T16:24:06.315Z,6.40
2017-11-06T16:26:34.607Z,6.30
2017-11-06T16:29:02.477Z,6.30
2017-11-06T16:31:29.999Z,6.40
2017-11-06T16:33:57.484Z,6.30
2017-11-06T16:36:25.749Z,6.40
2017-11-06T16:38:53.999Z,6.40
2017-11-06T16:41:21.783Z,6.40
2017-11-06T16:43:50.036Z,6.40
2017-11-06T16:46:17.555Z,6.40
2017-11-06T16:48:45.031Z,6.40
2017-11-06T16:51:12.612Z,6.40
2017-11-06T16:53:40.093Z,6.40
2017-11-06T16:56:08.344Z,6.50
2017-11-06T16:58:35.825Z,6.40
2017-11-06T17:01:03.332Z,6.30
2017-11-06T17:03:30.838Z,6.40
2017-11-06T17:05:58.320Z,6.40
2017-11-06T17:08:25.829Z,6.30
2017-11-06T17:10:53.329Z,6.40
2017-11-06T17:13:22.546Z,6.30
2017-11-06T17:15:50.803Z,6.40
2017-11-06T17:18:28.984Z,6.40
2017-11-06T17:20:56.474Z,6.40
2017-11-06T17:23:24.741Z,6.40
2017-11-06T17:25:52.989Z,6.40
2017-11-06T17:28:20.577Z,6.30
2017-11-06T17:30:48.824Z,6.30
2017-11-06T17:33:16.315Z,6.40
2017-11-06T17:35:44.572Z,6.40
2017-11-06T17:38:12.073Z,6.40
2017-11-06T17:40:39.548Z,6.40
2017-11-06T17:43:07.065Z,6.30
2017-11-06T17:45:35.332Z,6.30
2017-11-06T17:48:03.590Z,6.30
2017-11-06T17:50:31.094Z,6.30
2017-11-06T17:52:58.598Z,6.40
2017-11-06T17:55:26.075Z,6.40
2017-11-06T17:58:00.654Z,6.30
2017-11-06T18:00:28.139Z,6.30
2017-11-06T18:02:55.653Z,6.30
2017-11-06T18:05:23.128Z,6.20
2017-11-06T18:07:50.628Z,6.20
2017-11-06T18:10:18.140Z,6.20
2017-11-06T18:12:45.626Z,6.30
2017-11-06T18:15:13.109Z,6.30
2017-11-06T18:17:41.402Z,6.30
2017-11-06T18:20:09.669Z,6.30
2017-11-06T18:22:37.926Z,6.30
2017-11-06T18:25:05.421Z,6.20
2017-11-06T18:27:32.900Z,6.30
2017-11-06T18:30:00.393Z,6.30
2017-11-06T18:32:28.682Z,6.30
2017-11-06T18:34:56.271Z,6.30
2017-11-06T18:37:24.523Z,6.30
2017-11-06T18:39:52.017Z,6.30
2017-11-06T18:42:19.499Z,6.30
2017-11-06T18:44:47.002Z,6.30
2017-11-06T18:47:15.245Z,6.20
2017-11-06T18:49:42.759Z,6.20
2017-11-06T18:52:12.011Z,6.20
2017-11-06T18:54:40.432Z,6.20
2017-11-06T18:57:07.908Z,6.20
2017-11-06T18:59:35.469Z,6.10
2017-11-06T19:02:02.967Z,6.20
2017-11-06T19:04:30.477Z,6.10
2017-11-06T19:06:58.925Z,6.20
2017-11-06T19:09:26.745Z,6.20
2017-11-06T19:11:54.236Z,6.20
2017-11-06T19:14:21.755Z,6.30
2017-11-06T19:16:49.245Z,6.20
2017-11-06T19:19:16.747Z,6.30
2017-11-06T19:21:44.236Z,6.20
2017-11-06T19:24:11.744Z,6.30
2017-11-06T19:26:40.022Z,6.20
2017-11-06T19:29:08.936Z,6.20
2017-11-06T19:31:36.962Z,6.20
2017-11-06T19:34:10.092Z,6.30
2017-11-06T19:36:37.729Z,6.30
2017-11-06T19:39:05.208Z,6.30
2017-11-06T19:41:33.559Z,6.20
2017-11-06T19:44:01.038Z,6.20
2017-11-06T19:46:29.305Z,6.20
2017-11-06T19:48:57.562Z,6.20
2017-11-06T19:51:25.083Z,6.20
2017-11-06T19:53:52.568Z,6.20
2017-11-06T19:56:20.053Z,6.10
2017-11-06T19:58:48.305Z,6.20
2017-11-06T20:01:15.796Z,6.20
2017-11-06T20:03:44.045Z,6.20
2017-11-06T20:06:11.540Z,6.20
2017-11-06T20:08:39.780Z,6.20
2017-11-06T20:11:07.257Z,6.20
2017-11-06T20:13:35.512Z,6.20
2017-11-06T20:16:02.988Z,6.20
2017-11-06T20:18:31.245Z,6.20
2017-11-06T20:20:58.753Z,6.20
2017-11-06T20:23:26.318Z,6.20
2017-11-06T20:25:53.793Z,6.20
2017-11-06T20:28:21.296Z,6.10
2017-11-06T20:30:48.793Z,6.20
2017-11-06T20:33:16.484Z,6.10
2017-11-06T20:35:43.970Z,6.10
2017-11-06T20:38:12.225Z,6.00
2017-11-06T20:40:39.708Z,6.00
2017-11-06T20:43:07.210Z,6.00
2017-11-06T20:45:34.700Z,6.00
2017-11-06T20:48:02.207Z,6.00
2017-11-06T20:50:29.692Z,6.10
2017-11-06T20:52:57.208Z,6.10
2017-11-06T20:55:25.472Z,6.10
2017-11-06T20:57:52.996Z,6.10
2017-11-06T21:00:20.472Z,6.00
2017-11-06T21:02:48.056Z,6.00
2017-11-06T21:05:17.307Z,6.00
2017-11-06T21:07:44.798Z,6.00
2017-11-06T21:10:12.315Z,6.00
2017-11-06T21:12:39.798Z,6.00
2017-11-06T21:15:07.289Z,6.00
2017-11-06T21:17:35.552Z,6.00
2017-11-06T21:20:03.053Z,5.90
2017-11-06T21:22:30.538Z,6.00
2017-11-06T21:24:58.041Z,6.00
2017-11-06T21:27:26.284Z,5.90
2017-11-06T21:29:59.481Z,5.90
2017-11-06T21:32:26.953Z,5.90
2017-11-06T21:34:54.460Z,5.90
2017-11-06T21:37:21.950Z,5.90
2017-11-06T21:39:49.441Z,5.80
2017-11-06T21:42:17.711Z,5.80
2017-11-06T21:44:45.215Z,5.80
2017-11-06T21:47:12.726Z,5.80
2017-11-06T21:49:40.251Z,5.70
2017-11-06T21:52:07.735Z,5.90
2017-11-06T21:54:35.262Z,5.90
2017-11-06T21:57:02.766Z,6.00
2017-11-06T21:59:31.018Z,5.90
2017-11-06T22:01:58.504Z,5.90
2017-11-06T22:04:26.762Z,6.00
2017-11-06T22:06:54.261Z,6.00
2017-11-06T22:09:21.745Z,6.00
2017-11-06T22:11:49.238Z,5.90
2017-11-06T22:14:16.813Z,6.00
2017-11-06T22:16:45.067Z,5.90
2017-11-06T22:19:12.561Z,5.90
2017-11-06T22:21:41.417Z,5.90
2017-11-06T22:24:08.903Z,5.90
2017-11-06T22:26:37.170Z,5.90
2017-11-06T22:29:05.418Z,5.90
2017-11-06T22:31:32.892Z,5.90
2017-11-06T22:34:01.149Z,5.90
2017-11-06T22:36:28.649Z,5.90
2017-11-06T22:38:56.143Z,5.90
2017-11-06T22:41:23.620Z,5.90
2017-11-06T22:43:51.314Z,5.80
2017-11-06T22:46:19.569Z,5.90
2017-11-06T22:48:47.058Z,5.90
2017-11-06T22:51:15.302Z,5.80
2017-11-06T22:53:42.776Z,5.80
2017-11-06T22:56:11.031Z,5.80
2017-11-06T22:58:38.538Z,5.80
2017-11-06T23:01:06.024Z,5.80
2017-11-06T23:03:33.537Z,5.90
2017-11-06T23:06:01.797Z,5.80
2017-11-06T23:08:29.297Z,5.80
2017-11-06T23:10:57.559Z,5.90
2017-11-06T23:13:25.056Z,5.90
2017-11-06T23:15:52.546Z,5.80
2017-11-06T23:18:20.106Z,5.80
2017-11-06T23:20:48.402Z,5.80
2017-11-06T23:23:16.668Z,5.80
2017-11-06T23:25:44.920Z,5.90
2017-11-06T23:28:12.411Z,5.90
2017-11-06T23:30:40.668Z,5.80
2017-11-06T23:33:08.160Z,5.80
2017-11-06T23:35:36.014Z,5.80
2017-11-06T23:38:04.265Z,5.80
2017-11-06T23:40:32.530Z,5.80
2017-11-06T23:43:00.006Z,5.90
2017-11-06T23:45:27.503Z,5.90
2017-11-06T23:47:54.992Z,5.90
2017-11-06T23:50:22.492Z,5.80
2017-11-06T23:52:50.740Z,5.90
2017-11-06T23:55:18.232Z,5.90
2017-11-06T23:57:46.469Z,5.90
